Time;durP1;ratioP1;P1;durP2;ratioP2;P2;SDS_P1;SDS_P2;PMS_P1;PMS_P2;Temp;Humidity;BMP_temperature;BMP_pressure;BME280_temperature;BME280_humidity;BME280_pressure;Samples;Min_cycle;Max_cycle;Signal;HPM_P1;HPM_P2
2023/06/06 00:00:20;;;;;;;8.40;4.55;;;;;;;;;;6157751;23;20080;-81
2023/06/06 00:02:46;;;;;;;8.98;4.38;;;;;;;;;;6156264;23;20380;-81
2023/06/06 00:05:13;;;;;;;10.23;4.75;;;;;;;;;;6183773;23;20009;-81
2023/06/06 00:07:40;;;;;;;7.20;3.95;;;;;;;;;;6182325;23;20055;-81
2023/06/06 00:10:07;;;;;;;9.00;4.30;;;;;;;;;;6182580;23;20502;-81
2023/06/06 00:12:33;;;;;;;7.57;4.18;;;;;;;;;;6157749;23;20040;-81
2023/06/06 00:14:59;;;;;;;15.10;4.50;;;;;;;;;;6157348;23;20072;-82
2023/06/06 00:17:25;;;;;;;7.85;4.07;;;;;;;;;;6132918;23;20411;-81
2023/06/06 00:19:52;;;;;;;12.90;4.43;;;;;;;;;;6184059;23;20024;-80
2023/06/06 00:22:22;;;;;;;6.43;4.10;;;;;;;;;;6183156;23;20001;-81
2023/06/06 00:24:54;;;;;;;;;;;;;;;;;;6182838;23;20005;-81
2023/06/06 00:27:19;;;;;;;9.90;4.40;;;;;;;;;;6183604;23;19912;-81
2023/06/06 00:29:45;;;;;;;9.57;4.80;;;;;;;;;;6183839;23;20009;-81
2023/06/06 00:32:11;;;;;;;7.05;4.10;;;;;;;;;;6183892;23;20007;-81
2023/06/06 00:34:36;;;;;;;10.57;4.18;;;;;;;;;;6182155;23;20001;-81
2023/06/06 00:37:01;;;;;;;8.35;4.20;;;;;;;;;;6183371;23;20093;-81
2023/06/06 00:39:27;;;;;;;7.68;4.32;;;;;;;;;;6182289;23;20028;-81
2023/06/06 00:41:53;;;;;;;7.82;4.00;;;;;;;;;;6183990;23;20328;-80
2023/06/06 00:44:19;;;;;;;8.60;4.50;;;;;;;;;;6183588;23;20039;-81
2023/06/06 00:46:45;;;;;;;7.32;4.20;;;;;;;;;;6133126;23;20615;-82
2023/06/06 00:49:12;;;;;;;7.40;4.07;;;;;;;;;;6157665;23;20097;-81
2023/06/06 00:51:38;;;;;;;6.95;4.15;;;;;;;;;;6157248;23;20005;-81
2023/06/06 00:54:03;;;;;;;8.75;3.95;;;;;;;;;;6132671;23;20440;-81
2023/06/06 00:56:29;;;;;;;8.30;4.10;;;;;;;;;;6156938;23;20016;-81
2023/06/06 00:58:57;;;;;;;6.88;3.90;;;;;;;;;;6133116;23;20067;-80
2023/06/06 01:01:28;;;;;;;7.72;3.63;;;;;;;;;;6157759;23;20333;-80
2023/06/06 01:03:56;;;;;;;9.80;4.05;;;;;;;;;;6156021;23;20566;-81
2023/06/06 01:06:22;;;;;;;6.82;4.35;;;;;;;;;;6156872;23;20020;-81
2023/06/06 01:08:48;;;;;;;11.05;4.22;;;;;;;;;;6181947;23;20001;-81
2023/06/06 01:11:17;;;;;;;7.13;3.88;;;;;;;;;;6181680;23;20005;-81
2023/06/06 01:13:52;;;;;;;8.33;4.20;;;;;;;;;;6157205;23;20007;-81
2023/06/06 01:16:18;;;;;;;8.75;3.90;;;;;;;;;;6157367;23;20009;-81
2023/06/06 01:18:45;;;;;;;7.03;3.92;;;;;;;;;;6157303;23;20009;-80
2023/06/06 01:21:11;;;;;;;6.50;3.88;;;;;;;;;;6156756;23;20008;-80
2023/06/06 01:23:36;;;;;;;9.35;4.05;;;;;;;;;;6156956;23;20072;-80
2023/06/06 01:26:05;;;;;;;9.15;3.75;;;;;;;;;;6156559;23;20017;-79
2023/06/06 01:28:31;;;;;;;7.72;3.83;;;;;;;;;;6181770;23;20084;-80
2023/06/06 01:30:57;;;;;;;7.38;3.53;;;;;;;;;;6157224;23;20318;-79
2023/06/06 01:33:33;;;;;;;6.03;3.28;;;;;;;;;;6181474;23;20007;-80
2023/06/06 01:36:20;;;;;;;6.45;3.47;;;;;;;;;;6157210;23;20005;-79
2023/06/06 01:38:53;;;;;;;6.45;3.40;;;;;;;;;;6183740;23;20459;-79
2023/06/06 01:41:20;;;;;;;9.50;3.53;;;;;;;;;;6158001;23;20005;-78
2023/06/06 01:43:47;;;;;;;6.40;3.47;;;;;;;;;;6181619;23;20044;-79
2023/06/06 01:46:12;;;;;;;10.10;3.88;;;;;;;;;;6157280;23;20020;-80
2023/06/06 01:48:38;;;;;;;8.20;4.00;;;;;;;;;;6181642;23;20001;-80
2023/06/06 01:51:03;;;;;;;8.45;3.47;;;;;;;;;;6181724;23;20027;-80
2023/06/06 01:53:29;;;;;;;8.68;3.55;;;;;;;;;;6132314;23;20001;-80
2023/06/06 01:55:55;;;;;;;13.55;3.38;;;;;;;;;;6183735;23;20075;-80
2023/06/06 01:58:20;;;;;;;7.85;3.30;;;;;;;;;;6183072;23;20348;-80
2023/06/06 02:00:46;;;;;;;6.88;3.30;;;;;;;;;;6182046;23;20139;-80
2023/06/06 02:03:11;;;;;;;5.85;3.15;;;;;;;;;;6182766;23;20111;-80
2023/06/06 02:05:37;;;;;;;7.97;3.20;;;;;;;;;;6179159;23;20013;-81
2023/06/06 02:08:03;;;;;;;6.50;3.20;;;;;;;;;;6183228;23;20373;-80
2023/06/06 02:10:28;;;;;;;6.22;3.72;;;;;;;;;;6181533;23;20058;-80
2023/06/06 02:12:53;;;;;;;5.63;3.03;;;;;;;;;;6181871;23;20001;-80
2023/06/06 02:15:19;;;;;;;9.10;3.50;;;;;;;;;;6183627;23;20013;-80
2023/06/06 02:17:45;;;;;;;8.90;3.10;;;;;;;;;;6184512;23;20447;-80
2023/06/06 02:20:11;;;;;;;5.35;2.88;;;;;;;;;;6183058;23;20011;-80
2023/06/06 02:22:37;;;;;;;8.23;3.63;;;;;;;;;;6134282;23;20492;-80
2023/06/06 02:25:03;;;;;;;6.80;3.10;;;;;;;;;;6158579;23;20091;-80
2023/06/06 02:27:30;;;;;;;7.50;2.92;;;;;;;;;;6185302;23;20012;-80
2023/06/06 02:29:56;;;;;;;6.15;2.65;;;;;;;;;;6184751;23;20001;-80
2023/06/06 02:32:21;;;;;;;6.93;3.10;;;;;;;;;;6184628;23;20064;-81
2023/06/06 02:34:46;;;;;;;5.97;3.03;;;;;;;;;;6182910;23;20009;-81
2023/06/06 02:37:12;;;;;;;8.50;3.55;;;;;;;;;;6185106;23;20152;-80
2023/06/06 02:39:37;;;;;;;5.70;3.13;;;;;;;;;;6183625;23;20001;-80
2023/06/06 02:42:03;;;;;;;5.97;3.00;;;;;;;;;;6183483;23;20009;-79
2023/06/06 02:44:30;;;;;;;5.35;2.88;;;;;;;;;;6183201;23;20334;-80
2023/06/06 02:46:55;;;;;;;5.60;2.53;;;;;;;;;;6184207;23;20028;-79
2023/06/06 02:49:21;;;;;;;6.60;2.75;;;;;;;;;;6158536;23;20445;-81
2023/06/06 02:51:46;;;;;;;7.88;2.95;;;;;;;;;;6183215;23;20004;-80
2023/06/06 02:54:12;;;;;;;5.93;2.80;;;;;;;;;;6183072;23;20005;-80
2023/06/06 02:56:37;;;;;;;4.05;2.70;;;;;;;;;;6182997;23;20067;-80
2023/06/06 02:59:03;;;;;;;7.38;3.40;;;;;;;;;;6183214;23;20005;-78
2023/06/06 03:01:30;;;;;;;6.43;2.92;;;;;;;;;;6184127;23;20001;-81
2023/06/06 03:03:56;;;;;;;9.40;3.10;;;;;;;;;;6184530;23;20005;-81
2023/06/06 03:06:21;;;;;;;6.50;2.63;;;;;;;;;;6184705;23;20019;-81
2023/06/06 03:08:47;;;;;;;5.22;2.83;;;;;;;;;;6182517;23;20072;-81
2023/06/06 03:11:12;;;;;;;5.97;2.88;;;;;;;;;;6184701;23;20451;-82
2023/06/06 03:13:38;;;;;;;10.45;2.80;;;;;;;;;;6182846;23;20395;-80
2023/06/06 03:16:04;;;;;;;8.60;3.17;;;;;;;;;;6198556;23;20015;-80
2023/06/06 03:18:29;;;;;;;6.88;2.78;;;;;;;;;;6177510;23;20005;-80
2023/06/06 03:20:55;;;;;;;5.97;2.90;;;;;;;;;;6203734;23;20037;-80
2023/06/06 03:23:21;;;;;;;9.88;3.33;;;;;;;;;;6204198;23;20005;-80
2023/06/06 03:25:49;;;;;;;7.22;3.30;;;;;;;;;;6178535;23;20013;-82
2023/06/06 03:28:16;;;;;;;7.70;3.50;;;;;;;;;;6167090;23;20012;-80
2023/06/06 03:30:41;;;;;;;5.80;3.13;;;;;;;;;;6182569;23;20095;-81
2023/06/06 03:33:07;;;;;;;7.40;3.22;;;;;;;;;;6182402;23;20001;-80
2023/06/06 03:35:33;;;;;;;9.20;3.50;;;;;;;;;;6184059;23;20005;-80
2023/06/06 03:38:00;;;;;;;9.13;3.53;;;;;;;;;;6158268;23;20001;-81
2023/06/06 03:40:25;;;;;;;10.13;3.20;;;;;;;;;;6182934;23;20492;-80
2023/06/06 03:42:51;;;;;;;9.55;2.90;;;;;;;;;;6182962;23;20015;-80
2023/06/06 03:45:17;;;;;;;13.32;3.33;;;;;;;;;;6184237;23;20092;-81
2023/06/06 03:47:43;;;;;;;7.35;3.10;;;;;;;;;;6182489;23;20056;-81
2023/06/06 03:50:09;;;;;;;7.40;2.72;;;;;;;;;;6182663;23;20001;-80
2023/06/06 03:52:34;;;;;;;6.13;2.80;;;;;;;;;;6184049;23;20012;-80
2023/06/06 03:55:00;;;;;;;17.70;3.45;;;;;;;;;;6184186;23;20487;-81
2023/06/06 03:57:26;;;;;;;7.38;2.53;;;;;;;;;;6183804;23;20059;-80
2023/06/06 03:59:51;;;;;;;7.18;2.97;;;;;;;;;;6182324;23;20005;-80
2023/06/06 04:02:17;;;;;;;6.88;2.47;;;;;;;;;;6183890;23;20336;-81
2023/06/06 04:04:43;;;;;;;6.25;2.55;;;;;;;;;;6157942;23;20008;-81
2023/06/06 04:07:11;;;;;;;6.93;2.60;;;;;;;;;;6184184;23;20001;-81
2023/06/06 04:09:39;;;;;;;15.55;2.40;;;;;;;;;;6179952;23;20463;-80
2023/06/06 04:12:06;;;;;;;10.35;2.95;;;;;;;;;;6183979;23;20392;-80
2023/06/06 04:14:31;;;;;;;5.32;2.40;;;;;;;;;;6181761;23;20012;-80
2023/06/06 04:16:57;;;;;;;6.25;2.38;;;;;;;;;;6157389;23;20009;-79
2023/06/06 04:19:22;;;;;;;5.05;2.40;;;;;;;;;;6182168;23;20001;-80
2023/06/06 04:21:48;;;;;;;7.25;2.22;;;;;;;;;;6181990;23;20005;-80
2023/06/06 04:24:13;;;;;;;4.78;2.03;;;;;;;;;;6157374;23;20052;-80
2023/06/06 04:26:39;;;;;;;5.53;2.20;;;;;;;;;;6183662;23;20099;-80
2023/06/06 04:29:04;;;;;;;4.28;2.30;;;;;;;;;;6181500;23;20099;-82
2023/06/06 04:31:30;;;;;;;7.00;2.10;;;;;;;;;;6184300;23;20069;-89
2023/06/06 04:33:56;;;;;;;5.93;2.17;;;;;;;;;;6184138;23;20001;-89
2023/06/06 04:36:24;;;;;;;3.33;2.25;;;;;;;;;;6186340;23;20388;-85
2023/06/06 04:38:50;;;;;;;7.63;2.30;;;;;;;;;;6184090;23;20020;-89
2023/06/06 04:41:16;;;;;;;3.33;1.80;;;;;;;;;;6161801;23;20425;-89
2023/06/06 04:43:42;;;;;;;4.18;2.13;;;;;;;;;;6136434;23;20006;-89
2023/06/06 04:46:08;;;;;;;7.43;1.95;;;;;;;;;;6194981;23;20020;-88
2023/06/06 04:48:38;;;;;;;3.47;2.00;;;;;;;;;;6188215;23;20085;-87
2023/06/06 04:51:09;;;;;;;3.80;2.10;;;;;;;;;;6185500;23;20008;-89
2023/06/06 04:53:53;;;;;;;3.72;2.20;;;;;;;;;;6168315;23;20005;-86
2023/06/06 04:56:18;;;;;;;2.90;1.80;;;;;;;;;;6184249;23;20444;-88
2023/06/06 04:58:46;;;;;;;6.82;2.00;;;;;;;;;;6184367;23;20049;-86
2023/06/06 05:01:19;;;;;;;5.57;1.80;;;;;;;;;;6188083;23;20056;-88
2023/06/06 05:03:54;;;;;;;6.68;2.03;;;;;;;;;;6162500;23;20561;-87
2023/06/06 05:06:44;;;;;;;3.83;1.95;;;;;;;;;;6142505;23;20023;-90
2023/06/06 05:09:14;;;;;;;8.95;1.65;;;;;;;;;;6204226;23;20028;-89
2023/06/06 05:11:51;;;;;;;5.22;2.67;;;;;;;;;;6196738;23;20005;-87
2023/06/06 05:14:29;;;;;;;7.20;2.30;;;;;;;;;;6200444;23;20004;-88
2023/06/06 05:16:58;;;;;;;5.57;2.10;;;;;;;;;;6189922;23;20004;-86
2023/06/06 05:19:29;;;;;;;13.35;2.00;;;;;;;;;;6187200;23;20013;-89
2023/06/06 05:21:56;;;;;;;4.30;2.00;;;;;;;;;;6199677;23;20076;-84
2023/06/06 05:24:22;;;;;;;6.72;2.15;;;;;;;;;;6199071;23;20013;-86
2023/06/06 05:26:48;;;;;;;5.82;1.98;;;;;;;;;;6144775;23;20012;-86
2023/06/06 05:29:13;;;;;;;3.95;2.35;;;;;;;;;;6190324;23;20013;-86
2023/06/06 05:31:39;;;;;;;8.18;1.90;;;;;;;;;;6188163;23;20420;-87
2023/06/06 05:34:04;;;;;;;5.55;2.20;;;;;;;;;;6163692;23;20016;-87
2023/06/06 05:36:30;;;;;;;3.63;1.88;;;;;;;;;;6164248;23;20487;-85
2023/06/06 05:39:16;;;;;;;5.63;2.10;;;;;;;;;;6186991;23;20009;-88
2023/06/06 05:41:50;;;;;;;9.65;2.08;;;;;;;;;;6183065;23;20005;-88
2023/06/06 05:44:17;;;;;;;2.88;2.00;;;;;;;;;;6182076;23;20005;-85
2023/06/06 05:46:43;;;;;;;3.95;2.10;;;;;;;;;;6160902;23;20009;-85
2023/06/06 05:49:22;;;;;;;7.20;2.03;;;;;;;;;;6184161;23;20036;-87
2023/06/06 05:51:48;;;;;;;3.25;1.80;;;;;;;;;;6182830;23;20440;-87
2023/06/06 05:54:15;;;;;;;14.45;2.22;;;;;;;;;;6186813;23;20009;-88
2023/06/06 05:56:47;;;;;;;4.50;1.83;;;;;;;;;;6183980;23;20009;-87
2023/06/06 05:59:13;;;;;;;4.50;1.65;;;;;;;;;;6184098;23;20021;-89
2023/06/06 06:01:39;;;;;;;11.23;1.90;;;;;;;;;;6133126;23;20005;-87
2023/06/06 06:04:06;;;;;;;8.70;1.80;;;;;;;;;;6182798;23;20005;-86
2023/06/06 06:06:31;;;;;;;6.22;1.95;;;;;;;;;;6181687;23;20009;-88
2023/06/06 06:08:57;;;;;;;4.25;1.98;;;;;;;;;;6189001;23;20012;-90
2023/06/06 06:11:23;;;;;;;3.97;1.70;;;;;;;;;;6183883;23;20436;-88
2023/06/06 06:13:48;;;;;;;3.50;1.92;;;;;;;;;;6155749;23;20009;-90
2023/06/06 06:16:14;;;;;;;5.30;1.60;;;;;;;;;;6185962;23;20007;-88
2023/06/06 06:18:40;;;;;;;6.78;1.83;;;;;;;;;;6184631;23;20039;-87
2023/06/06 06:21:05;;;;;;;6.47;2.15;;;;;;;;;;6185022;23;20093;-90
2023/06/06 06:23:30;;;;;;;5.88;1.90;;;;;;;;;;6160992;23;20421;-87
2023/06/06 06:25:56;;;;;;;8.82;2.00;;;;;;;;;;6187038;23;20096;-84
2023/06/06 06:28:25;;;;;;;8.05;1.98;;;;;;;;;;6189230;23;20008;-87
2023/06/06 06:30:50;;;;;;;4.97;1.83;;;;;;;;;;6188684;23;19997;-88
2023/06/06 06:33:16;;;;;;;4.22;1.90;;;;;;;;;;6187160;23;20063;-90
2023/06/06 06:35:42;;;;;;;5.15;2.00;;;;;;;;;;6185704;23;20031;-87
2023/06/06 06:38:08;;;;;;;3.13;1.92;;;;;;;;;;6185876;23;20439;-87
2023/06/06 06:40:37;;;;;;;3.50;1.95;;;;;;;;;;6187210;23;20040;-86
2023/06/06 06:43:12;;;;;;;6.10;2.20;;;;;;;;;;6195067;23;20423;-88
2023/06/06 06:45:39;;;;;;;4.75;1.90;;;;;;;;;;6140524;23;20013;-90
2023/06/06 06:48:05;;;;;;;4.85;1.83;;;;;;;;;;6185260;23;20021;-87
2023/06/06 06:50:30;;;;;;;5.22;1.70;;;;;;;;;;6183685;23;20031;-85
2023/06/06 06:52:56;;;;;;;4.20;1.90;;;;;;;;;;6189276;23;20040;-89
2023/06/06 06:55:25;;;;;;;2.50;1.90;;;;;;;;;;6197074;23;20051;-85
2023/06/06 06:57:52;;;;;;;5.00;1.95;;;;;;;;;;6198025;23;20028;-89
2023/06/06 07:00:23;;;;;;;4.60;2.00;;;;;;;;;;6164794;23;20084;-87
2023/06/06 07:02:57;;;;;;;3.83;2.08;;;;;;;;;;6188212;23;20012;-88
2023/06/06 07:05:24;;;;;;;2.97;1.90;;;;;;;;;;6193074;23;20005;-88
2023/06/06 07:07:52;;;;;;;6.03;1.90;;;;;;;;;;6184560;23;20001;-90
2023/06/06 07:10:19;;;;;;;3.00;1.80;;;;;;;;;;6159280;23;20004;-89
2023/06/06 07:12:48;;;;;;;7.85;1.90;;;;;;;;;;6182361;23;20117;-89
2023/06/06 07:15:15;;;;;;;5.05;2.08;;;;;;;;;;6182135;23;20001;-86
2023/06/06 07:17:51;;;;;;;3.33;1.95;;;;;;;;;;6156770;23;20090;-87
2023/06/06 07:20:19;;;;;;;10.80;1.90;;;;;;;;;;6183562;23;20689;-85
2023/06/06 07:22:45;;;;;;;9.13;2.08;;;;;;;;;;6182973;23;20028;-89
2023/06/06 07:25:11;;;;;;;4.32;2.17;;;;;;;;;;6162643;23;20009;-87
2023/06/06 07:27:37;;;;;;;3.45;2.35;;;;;;;;;;6160302;23;20522;-90
2023/06/06 07:30:12;;;;;;;4.38;2.08;;;;;;;;;;6165671;23;20005;-88
2023/06/06 07:32:38;;;;;;;4.50;1.67;;;;;;;;;;6159712;23;20016;-91
2023/06/06 07:35:06;;;;;;;6.00;1.90;;;;;;;;;;6186613;23;20081;-86
2023/06/06 07:37:31;;;;;;;2.78;1.52;;;;;;;;;;6185582;23;20304;-86
2023/06/06 07:39:57;;;;;;;3.90;2.08;;;;;;;;;;6186639;23;20008;-88
2023/06/06 07:42:22;;;;;;;4.13;2.13;;;;;;;;;;6157327;23;20364;-88
2023/06/06 07:44:48;;;;;;;4.35;2.10;;;;;;;;;;6184650;23;20013;-86
2023/06/06 07:47:13;;;;;;;6.93;2.30;;;;;;;;;;6154103;23;20089;-90
2023/06/06 07:49:41;;;;;;;4.18;1.83;;;;;;;;;;6179669;23;20084;-86
2023/06/06 07:52:06;;;;;;;3.15;1.80;;;;;;;;;;6185310;23;20452;-89
2023/06/06 07:54:32;;;;;;;2.33;1.70;;;;;;;;;;6184566;23;20008;-86
2023/06/06 07:57:00;;;;;;;5.93;1.90;;;;;;;;;;6164184;23;20013;-87
2023/06/06 07:59:26;;;;;;;4.00;1.88;;;;;;;;;;6191146;23;20100;-89
2023/06/06 08:01:52;;;;;;;5.53;2.00;;;;;;;;;;6186738;23;19997;-88
2023/06/06 08:04:17;;;;;;;5.78;2.00;;;;;;;;;;6187468;23;20056;-93
2023/06/06 08:06:43;;;;;;;2.92;1.90;;;;;;;;;;6185371;23;20453;-88
2023/06/06 08:09:09;;;;;;;11.13;1.90;;;;;;;;;;6183875;23;20459;-90
2023/06/06 08:11:35;;;;;;;3.10;2.10;;;;;;;;;;6161370;23;20069;-88
2023/06/06 08:14:01;;;;;;;4.25;1.55;;;;;;;;;;6163723;23;20488;-90
2023/06/06 08:16:28;;;;;;;2.42;1.80;;;;;;;;;;6187928;23;20005;-90
2023/06/06 08:18:59;;;;;;;6.28;1.45;;;;;;;;;;6185714;23;20005;-86
2023/06/06 08:21:25;;;;;;;11.13;1.77;;;;;;;;;;6137923;23;20005;-91
2023/06/06 08:23:51;;;;;;;3.70;1.80;;;;;;;;;;6188643;23;20005;-90
2023/06/06 08:26:16;;;;;;;5.07;1.75;;;;;;;;;;6160058;23;20032;-85
2023/06/06 08:28:43;;;;;;;3.70;2.45;;;;;;;;;;6158893;23;20016;-90
2023/06/06 08:31:09;;;;;;;4.75;1.70;;;;;;;;;;6160377;23;20005;-89
2023/06/06 08:33:41;;;;;;;5.18;1.63;;;;;;;;;;6184027;23;20063;-87
2023/06/06 08:36:07;;;;;;;6.47;1.90;;;;;;;;;;6177498;23;20009;-84
2023/06/06 08:38:32;;;;;;;3.83;1.90;;;;;;;;;;6179518;23;20009;-83
2023/06/06 08:40:58;;;;;;;6.82;1.75;;;;;;;;;;6181313;23;20039;-89
2023/06/06 08:43:23;;;;;;;5.47;2.10;;;;;;;;;;6133017;23;20009;-87
2023/06/06 08:45:52;;;;;;;4.88;1.98;;;;;;;;;;6131945;23;20373;-84
2023/06/06 08:48:18;;;;;;;8.07;2.13;;;;;;;;;;6108741;23;20005;-85
2023/06/06 08:50:44;;;;;;;5.82;1.98;;;;;;;;;;6151297;23;20496;-85
2023/06/06 08:53:14;;;;;;;8.73;2.60;;;;;;;;;;6133521;23;20063;-84
2023/06/06 08:55:39;;;;;;;;;;;;;;;;;;6134748;23;20036;-82
2023/06/06 08:58:05;;;;;;;10.13;3.58;;;;;;;;;;6154041;23;19909;-83
2023/06/06 09:00:32;;;;;;;7.43;3.33;;;;;;;;;;6132902;23;20002;-83
2023/06/06 09:03:02;;;;;;;6.20;3.33;;;;;;;;;;6135348;23;20005;-84
2023/06/06 09:05:28;;;;;;;9.30;3.22;;;;;;;;;;6130669;23;20029;-79
2023/06/06 09:07:54;;;;;;;9.73;3.55;;;;;;;;;;6129404;23;20660;-80
2023/06/06 09:10:19;;;;;;;7.32;3.53;;;;;;;;;;6151289;23;20021;-80
2023/06/06 09:12:48;;;;;;;10.50;3.22;;;;;;;;;;6153220;23;20012;-80
2023/06/06 09:15:14;;;;;;;12.17;2.60;;;;;;;;;;6126241;23;20002;-79
2023/06/06 09:17:40;;;;;;;8.18;3.08;;;;;;;;;;6156275;23;20012;-82
2023/06/06 09:20:06;;;;;;;5.10;2.35;;;;;;;;;;6129833;23;19997;-81
2023/06/06 09:22:43;;;;;;;6.22;2.53;;;;;;;;;;6153351;23;20005;-80
2023/06/06 09:25:21;;;;;;;4.50;2.40;;;;;;;;;;6131477;23;20006;-82
2023/06/06 09:27:55;;;;;;;11.88;2.50;;;;;;;;;;6154576;23;20001;-79
2023/06/06 09:30:24;;;;;;;2.65;1.77;;;;;;;;;;6152555;23;20068;-80
2023/06/06 09:32:59;;;;;;;9.48;2.30;;;;;;;;;;6153637;23;20006;-81
2023/06/06 09:35:33;;;;;;;8.07;2.50;;;;;;;;;;6154337;23;20005;-77
2023/06/06 09:40:59;;;;;;;10.38;2.10;;;;;;;;;;6136759;23;20013;-79
2023/06/06 09:43:30;;;;;;;4.70;1.95;;;;;;;;;;6102360;23;20002;-84
2023/06/06 09:45:57;;;;;;;6.93;2.00;;;;;;;;;;6109415;23;20057;-82
2023/06/06 09:48:25;;;;;;;2.55;1.77;;;;;;;;;;6156112;23;20008;-82
2023/06/06 09:50:50;;;;;;;4.28;2.00;;;;;;;;;;6153272;23;20009;-83
2023/06/06 09:53:16;;;;;;;4.43;2.20;;;;;;;;;;6124930;23;20080;-82
2023/06/06 09:55:42;;;;;;;4.00;1.88;;;;;;;;;;6151573;23;20002;-81
2023/06/06 09:58:16;;;;;;;3.78;1.88;;;;;;;;;;6125055;23;20012;-83
2023/06/06 10:00:45;;;;;;;5.28;2.03;;;;;;;;;;6151059;23;20345;-80
2023/06/06 10:03:18;;;;;;;5.13;2.05;;;;;;;;;;6126350;23;20033;-82
2023/06/06 10:05:51;;;;;;;4.18;2.28;;;;;;;;;;6151361;23;20005;-81
2023/06/06 10:08:18;;;;;;;7.10;2.03;;;;;;;;;;6150832;23;20085;-81
2023/06/06 10:10:45;;;;;;;3.47;2.03;;;;;;;;;;6124323;23;20077;-83
2023/06/06 10:13:12;;;;;;;3.28;2.13;;;;;;;;;;6100252;23;20596;-83
2023/06/06 10:15:39;;;;;;;4.38;2.10;;;;;;;;;;6149061;23;20341;-82
2023/06/06 10:18:04;;;;;;;3.50;2.10;;;;;;;;;;6149870;23;20012;-82
2023/06/06 10:20:30;;;;;;;5.75;1.83;;;;;;;;;;6151097;23;20064;-81
2023/06/06 10:22:55;;;;;;;3.97;1.73;;;;;;;;;;6099657;23;20010;-82
2023/06/06 10:25:21;;;;;;;7.60;1.75;;;;;;;;;;6151522;23;20005;-82
2023/06/06 10:28:00;;;;;;;4.03;2.15;;;;;;;;;;6127102;23;20092;-82
2023/06/06 10:30:36;;;;;;;7.78;1.95;;;;;;;;;;6126899;23;20009;-81
2023/06/06 10:33:23;;;;;;;3.38;1.90;;;;;;;;;;6104267;23;20002;-82
2023/06/06 10:35:51;;;;;;;4.80;1.98;;;;;;;;;;6150851;23;20128;-82
2023/06/06 10:38:17;;;;;;;8.88;2.17;;;;;;;;;;6103446;23;20149;-81
2023/06/06 10:40:50;;;;;;;2.97;1.83;;;;;;;;;;6154051;23;20005;-83
2023/06/06 10:43:18;;;;;;;2.50;1.77;;;;;;;;;;6127794;23;20013;-83
2023/06/06 10:45:45;;;;;;;4.68;1.80;;;;;;;;;;6128766;23;20010;-84
2023/06/06 10:48:14;;;;;;;3.90;1.73;;;;;;;;;;6152105;23;20190;-81
2023/06/06 10:50:53;;;;;;;4.88;1.95;;;;;;;;;;6156362;23;20008;-82
2023/06/06 10:53:21;;;;;;;2.77;1.70;;;;;;;;;;6156304;23;20001;-81
2023/06/06 10:55:47;;;;;;;4.35;1.73;;;;;;;;;;6133125;23;20002;-82
2023/06/06 10:58:29;;;;;;;6.10;1.90;;;;;;;;;;6155083;23;20073;-83
2023/06/06 11:00:58;;;;;;;3.67;1.60;;;;;;;;;;6156556;23;20004;-80
2023/06/06 11:03:37;;;;;;;2.28;1.50;;;;;;;;;;6126768;23;20014;-80
2023/06/06 11:06:11;;;;;;;3.35;1.50;;;;;;;;;;6153817;23;20029;-81
2023/06/06 11:08:55;;;;;;;3.92;2.10;;;;;;;;;;6155430;23;20080;-82
2023/06/06 11:11:29;;;;;;;5.47;1.85;;;;;;;;;;6161875;23;20380;-83
2023/06/06 11:13:58;;;;;;;6.18;2.00;;;;;;;;;;6124831;23;20067;-80
2023/06/06 11:16:39;;;;;;;2.17;1.70;;;;;;;;;;6124259;23;20009;-82
2023/06/06 11:19:09;;;;;;;4.95;1.70;;;;;;;;;;6149366;23;20021;-83
2023/06/06 11:21:40;;;;;;;5.45;2.03;;;;;;;;;;6152176;23;19997;-81
2023/06/06 11:24:06;;;;;;;7.53;1.58;;;;;;;;;;6098695;23;19997;-81
2023/06/06 11:26:35;;;;;;;4.32;1.88;;;;;;;;;;6095894;23;20044;-82
2023/06/06 11:29:00;;;;;;;4.18;2.22;;;;;;;;;;6122477;23;20392;-81
2023/06/06 11:31:26;;;;;;;4.45;1.77;;;;;;;;;;6074985;23;19997;-81
2023/06/06 11:34:12;;;;;;;4.55;1.90;;;;;;;;;;6097939;23;20037;-83
2023/06/06 11:36:39;;;;;;;2.67;1.95;;;;;;;;;;6126772;23;20318;-84
2023/06/06 11:39:06;;;;;;;4.35;1.70;;;;;;;;;;6099580;23;20006;-82
2023/06/06 11:41:51;;;;;;;4.13;1.90;;;;;;;;;;6098762;23;20057;-82
2023/06/06 11:44:17;;;;;;;5.35;2.22;;;;;;;;;;6124540;23;20645;-82
2023/06/06 11:46:52;;;;;;;3.88;2.03;;;;;;;;;;6075889;23;20364;-84
2023/06/06 11:49:18;;;;;;;5.38;2.10;;;;;;;;;;6075651;23;20106;-82
2023/06/06 11:52:05;;;;;;;3.42;2.03;;;;;;;;;;6099234;23;20012;-83
2023/06/06 11:54:30;;;;;;;2.83;1.90;;;;;;;;;;6149631;23;20001;-83
2023/06/06 11:57:03;;;;;;;3.15;2.10;;;;;;;;;;6124417;23;20101;-82
2023/06/06 11:59:29;;;;;;;4.47;1.98;;;;;;;;;;6125074;23;20001;-81
2023/06/06 12:01:56;;;;;;;3.88;2.03;;;;;;;;;;6126244;23;20012;-81
2023/06/06 12:04:25;;;;;;;4.32;2.03;;;;;;;;;;6103471;23;20008;-82
2023/06/06 12:06:52;;;;;;;4.25;1.88;;;;;;;;;;6104078;23;20139;-83
2023/06/06 12:09:19;;;;;;;11.55;2.00;;;;;;;;;;6103270;23;20429;-84
2023/06/06 12:11:54;;;;;;;4.22;1.92;;;;;;;;;;6127822;23;20012;-82
2023/06/06 12:14:21;;;;;;;7.43;2.95;;;;;;;;;;6127671;23;20066;-82
2023/06/06 12:16:46;;;;;;;5.70;2.10;;;;;;;;;;6103171;23;20013;-82
2023/06/06 12:19:14;;;;;;;4.15;1.98;;;;;;;;;;6127223;23;20366;-83
2023/06/06 12:21:50;;;;;;;2.85;1.98;;;;;;;;;;6102560;23;20006;-82
2023/06/06 12:24:24;;;;;;;3.08;2.08;;;;;;;;;;6153356;23;20088;-81
2023/06/06 12:26:53;;;;;;;4.05;2.20;;;;;;;;;;6127318;23;20005;-82
2023/06/06 12:29:30;;;;;;;5.80;2.45;;;;;;;;;;6103613;23;20001;-80
2023/06/06 12:32:18;;;;;;;5.32;2.17;;;;;;;;;;6103384;23;20008;-82
2023/06/06 12:34:44;;;;;;;4.95;2.08;;;;;;;;;;6153009;23;20590;-82
2023/06/06 12:37:10;;;;;;;3.03;2.13;;;;;;;;;;6127016;23;20416;-82
2023/06/06 12:39:42;;;;;;;7.47;2.17;;;;;;;;;;6153664;23;20001;-82
2023/06/06 12:42:14;;;;;;;2.83;2.10;;;;;;;;;;6153684;23;20360;-82
2023/06/06 12:44:40;;;;;;;6.68;2.53;;;;;;;;;;6128041;23;20010;-81
2023/06/06 12:47:06;;;;;;;4.60;2.83;;;;;;;;;;6153260;23;20488;-81
2023/06/06 12:49:36;;;;;;;5.38;2.60;;;;;;;;;;6153610;23;20005;-81
2023/06/06 12:52:04;;;;;;;6.45;2.60;;;;;;;;;;6154120;23;20033;-83
2023/06/06 12:54:29;;;;;;;4.53;2.08;;;;;;;;;;6128138;23;20409;-81
2023/06/06 12:56:55;;;;;;;5.53;2.42;;;;;;;;;;6102728;23;20009;-82
2023/06/06 12:59:21;;;;;;;3.83;2.15;;;;;;;;;;6153484;23;20017;-81
2023/06/06 13:01:47;;;;;;;5.60;2.25;;;;;;;;;;6103145;23;20028;-81
2023/06/06 13:04:13;;;;;;;2.80;2.22;;;;;;;;;;6127671;23;20084;-82
2023/06/06 13:06:41;;;;;;;5.57;2.40;;;;;;;;;;6102964;23;20010;-81
2023/06/06 13:09:06;;;;;;;4.43;2.20;;;;;;;;;;6153580;23;20001;-81
2023/06/06 13:11:33;;;;;;;5.85;2.58;;;;;;;;;;6127287;23;20471;-80
2023/06/06 13:14:00;;;;;;;7.13;2.28;;;;;;;;;;6103559;23;20009;-80
2023/06/06 13:16:26;;;;;;;7.75;2.70;;;;;;;;;;6153431;23;20437;-79
2023/06/06 13:18:52;;;;;;;3.42;2.65;;;;;;;;;;6127533;23;20016;-79
2023/06/06 13:21:17;;;;;;;3.65;2.17;;;;;;;;;;6153570;23;20001;-81
2023/06/06 13:23:43;;;;;;;7.22;2.45;;;;;;;;;;6153197;23;20006;-79
2023/06/06 13:26:08;;;;;;;5.68;2.17;;;;;;;;;;6126503;23;20009;-79
2023/06/06 13:28:34;;;;;;;3.65;1.92;;;;;;;;;;6150481;23;20433;-78
2023/06/06 13:30:59;;;;;;;12.10;2.45;;;;;;;;;;6126525;23;20005;-79
2023/06/06 13:33:24;;;;;;;3.35;2.03;;;;;;;;;;6102743;23;20006;-80
2023/06/06 13:35:50;;;;;;;6.00;2.60;;;;;;;;;;6153308;23;20005;-80
2023/06/06 13:38:17;;;;;;;7.47;2.75;;;;;;;;;;6153352;23;20010;-79
2023/06/06 13:40:42;;;;;;;3.30;2.50;;;;;;;;;;6126909;23;20005;-79
2023/06/06 13:43:09;;;;;;;4.65;2.25;;;;;;;;;;6127206;23;20006;-79
2023/06/06 13:45:35;;;;;;;11.02;2.60;;;;;;;;;;6153579;23;20001;-79
2023/06/06 13:48:00;;;;;;;5.13;2.47;;;;;;;;;;6153644;23;20009;-80
2023/06/06 13:50:27;;;;;;;6.20;2.55;;;;;;;;;;6153086;23;20341;-79
2023/06/06 13:52:52;;;;;;;5.07;2.42;;;;;;;;;;6103612;23;20426;-78
2023/06/06 13:55:18;;;;;;;7.20;2.40;;;;;;;;;;6152868;23;20164;-79
2023/06/06 13:57:50;;;;;;;3.97;2.22;;;;;;;;;;6153210;23;20073;-79
2023/06/06 14:00:16;;;;;;;6.47;2.67;;;;;;;;;;6129186;23;20012;-79
2023/06/06 14:02:42;;;;;;;7.63;3.05;;;;;;;;;;6153456;23;20029;-79
2023/06/06 14:05:07;;;;;;;7.07;2.50;;;;;;;;;;6153344;23;20041;-79
2023/06/06 14:07:33;;;;;;;4.30;2.60;;;;;;;;;;6153382;23;20001;-79
2023/06/06 14:09:59;;;;;;;4.93;2.55;;;;;;;;;;6153557;23;20104;-79
2023/06/06 14:12:24;;;;;;;5.93;2.58;;;;;;;;;;6155414;23;20001;-79
2023/06/06 14:14:50;;;;;;;3.88;2.40;;;;;;;;;;6129975;23;20335;-79
2023/06/06 14:17:16;;;;;;;4.88;2.53;;;;;;;;;;6156040;23;20001;-79
2023/06/06 14:19:50;;;;;;;4.95;2.70;;;;;;;;;;6129629;23;20029;-80
2023/06/06 14:24:56;;;;;;;4.00;2.70;;;;;;;;;;6156104;23;20009;-79
2023/06/06 14:27:22;;;;;;;4.78;2.22;;;;;;;;;;6173092;23;20084;-80
2023/06/06 14:29:48;;;;;;;4.78;2.63;;;;;;;;;;6151884;23;20040;-79
2023/06/06 14:32:14;;;;;;;5.53;2.63;;;;;;;;;;6124433;23;20005;-79
2023/06/06 14:34:44;;;;;;;6.32;2.50;;;;;;;;;;6150471;23;20025;-78
2023/06/06 14:37:09;;;;;;;5.97;2.75;;;;;;;;;;6148673;23;20352;-77
2023/06/06 14:39:35;;;;;;;11.35;2.85;;;;;;;;;;6111647;23;20006;-81
2023/06/06 14:42:00;;;;;;;4.88;2.60;;;;;;;;;;6154556;23;20036;-80
2023/06/06 14:44:30;;;;;;;4.47;2.67;;;;;;;;;;6080127;23;20010;-78
2023/06/06 14:46:56;;;;;;;5.10;2.63;;;;;;;;;;6153201;23;20006;-81
2023/06/06 14:49:21;;;;;;;4.45;3.00;;;;;;;;;;6104463;23;20084;-81
2023/06/06 14:51:47;;;;;;;5.70;3.08;;;;;;;;;;6154615;23;20011;-81